Time;durP1;ratioP1;P1;durP2;ratioP2;P2;SDS_P1;SDS_P2;PMS_P1;PMS_P2;Temp;Humidity;BMP_temperature;BMP_pressure;BME280_temperature;BME280_humidity;BME280_pressure;Samples;Min_cycle;Max_cycle;Signal;HPM_P1;HPM_P2
2021/10/05 00:02:09;;;;;;;30.55;18.35;;;10.40;90.60;;;;;;5075208;28;20016;-70
2021/10/05 00:04:35;;;;;;;29.90;17.80;;;10.40;90.60;;;;;;5074757;28;20505;-71
2021/10/05 00:07:01;;;;;;;25.70;16.25;;;10.30;90.60;;;;;;5058539;28;20049;-71
2021/10/05 00:09:27;;;;;;;24.65;15.63;;;10.30;90.70;;;;;;5054762;28;20052;-71
2021/10/05 00:11:53;;;;;;;22.77;15.30;;;10.30;90.80;;;;;;5055024;28;20032;-70
2021/10/05 00:14:19;;;;;;;29.63;16.08;;;10.20;90.80;;;;;;5073943;28;20103;-70
2021/10/05 00:16:44;;;;;;;27.23;16.50;;;10.20;90.90;;;;;;5065567;28;20520;-70
2021/10/05 00:19:10;;;;;;;25.70;17.50;;;10.20;91.00;;;;;;5091118;28;20055;-70
2021/10/05 00:21:36;;;;;;;26.13;17.83;;;10.20;91.10;;;;;;5087099;28;20024;-71
2021/10/05 00:24:01;;;;;;;24.50;16.15;;;10.20;91.10;;;;;;5066875;28;20489;-70
2021/10/05 00:26:27;;;;;;;26.48;17.33;;;10.10;91.30;;;;;;5082596;28;20046;-71
2021/10/05 00:28:53;;;;;;;27.98;19.15;;;10.10;91.40;;;;;;5085757;28;20064;-70
2021/10/05 00:31:19;;;;;;;28.75;18.73;;;10.10;91.70;;;;;;5080083;28;20022;-70
2021/10/05 00:33:45;;;;;;;40.83;17.88;;;10.10;91.70;;;;;;5074706;28;20028;-72
2021/10/05 00:36:10;;;;;;;31.10;19.40;;;10.10;91.80;;;;;;5063700;28;20456;-71
2021/10/05 00:38:36;;;;;;;25.15;17.42;;;10.00;91.90;;;;;;5061165;28;20033;-71
2021/10/05 00:41:02;;;;;;;28.80;18.58;;;10.00;91.90;;;;;;5058395;28;20367;-71
2021/10/05 00:43:29;;;;;;;27.67;17.35;;;10.00;91.90;;;;;;5051957;28;20039;-72
2021/10/05 00:45:54;;;;;;;26.27;17.20;;;10.00;91.90;;;;;;5073743;28;20024;-71
2021/10/05 00:48:20;;;;;;;24.83;17.08;;;9.90;92.00;;;;;;5056050;28;20028;-73
2021/10/05 00:50:47;;;;;;;30.92;19.60;;;9.90;92.10;;;;;;5077032;28;20055;-71
2021/10/05 00:53:14;;;;;;;32.40;19.88;;;9.90;92.20;;;;;;5088220;28;20411;-71
2021/10/05 00:55:40;;;;;;;28.00;19.20;;;9.80;92.20;;;;;;5049431;28;20028;-71
2021/10/05 00:58:06;;;;;;;27.45;17.75;;;9.80;92.40;;;;;;5073787;28;20112;-71
2021/10/05 01:00:32;;;;;;;32.40;17.90;;;9.80;92.40;;;;;;5043543;28;20029;-71
2021/10/05 01:02:58;;;;;;;26.05;16.40;;;9.80;92.50;;;;;;5064083;28;20024;-72
2021/10/05 01:05:24;;;;;;;22.83;15.57;;;9.80;92.50;;;;;;5082767;28;20063;-72
2021/10/05 01:07:50;;;;;;;22.02;16.20;;;9.70;92.40;;;;;;5055762;28;20447;-71
2021/10/05 01:10:17;;;;;;;23.05;16.30;;;9.70;92.40;;;;;;5073500;28;20093;-71
2021/10/05 01:12:48;;;;;;;20.20;15.23;;;9.70;92.50;;;;;;5073670;28;20459;-70
2021/10/05 01:15:14;;;;;;;22.45;15.52;;;9.70;92.50;;;;;;5071939;28;20028;-71
2021/10/05 01:17:40;;;;;;;23.98;16.50;;;9.60;92.60;;;;;;5040344;28;20020;-72
2021/10/05 01:20:07;;;;;;;22.90;16.40;;;9.60;92.70;;;;;;5070028;28;20028;-72
2021/10/05 01:22:33;;;;;;;22.80;16.00;;;9.60;92.90;;;;;;5073412;28;20081;-72
2021/10/05 01:25:05;;;;;;;24.02;16.02;;;9.70;93.10;;;;;;5073547;28;20458;-72
2021/10/05 01:27:30;;;;;;;20.67;16.25;;;9.60;93.20;;;;;;5055973;28;20371;-71
2021/10/05 01:29:56;;;;;;;20.60;16.20;;;9.60;93.20;;;;;;5055941;28;20029;-72
2021/10/05 01:32:21;;;;;;;22.88;16.30;;;9.60;93.10;;;;;;5055166;28;20028;-71
2021/10/05 01:34:47;;;;;;;21.48;15.38;;;9.60;93.10;;;;;;5073589;28;20108;-71
2021/10/05 01:37:13;;;;;;;21.92;16.90;;;9.50;93.20;;;;;;5055401;28;20029;-71
2021/10/05 01:39:39;;;;;;;23.75;17.15;;;9.60;93.30;;;;;;5058127;28;20471;-71
2021/10/05 01:42:11;;;;;;;20.65;15.35;;;9.50;93.40;;;;;;5059683;28;20481;-71
2021/10/05 01:44:38;;;;;;;19.67;15.23;;;9.50;93.40;;;;;;5047283;28;20027;-71
2021/10/05 01:47:06;;;;;;;20.77;15.70;;;9.40;93.40;;;;;;5083649;28;20428;-72
2021/10/05 01:49:33;;;;;;;23.95;15.90;;;9.40;93.40;;;;;;5095189;28;20012;-71
2021/10/05 01:51:58;;;;;;;20.77;14.80;;;9.40;93.40;;;;;;5083017;28;20024;-71
2021/10/05 01:54:24;;;;;;;21.38;15.57;;;9.40;93.40;;;;;;5071509;28;20140;-70
2021/10/05 01:56:50;;;;;;;22.92;16.25;;;9.40;93.30;;;;;;5059139;28;20024;-71
2021/10/05 01:59:16;;;;;;;21.90;15.00;;;9.40;93.50;;;;;;5082274;28;20024;-72
2021/10/05 02:01:42;;;;;;;26.92;19.08;;;9.40;93.50;;;;;;5083850;28;20031;-71
2021/10/05 02:04:09;;;;;;;35.88;21.25;;;9.40;93.80;;;;;;5077000;28;20020;-71
2021/10/05 02:06:36;;;;;;;30.08;18.40;;;9.30;94.00;;;;;;5077186;28;20091;-72
2021/10/05 02:09:04;;;;;;;28.95;18.20;;;9.30;94.20;;;;;;5059213;28;20032;-71
2021/10/05 02:11:29;;;;;;;29.75;19.15;;;9.30;94.50;;;;;;5076937;28;20031;-71
2021/10/05 02:13:55;;;;;;;25.67;19.10;;;9.30;94.60;;;;;;5060666;28;20032;-71
2021/10/05 02:16:21;;;;;;;24.73;17.73;;;9.30;94.60;;;;;;5058576;28;20070;-71
2021/10/05 02:18:47;;;;;;;25.48;18.00;;;9.30;94.70;;;;;;5077028;28;20398;-73
2021/10/05 02:21:16;;;;;;;26.98;18.88;;;9.30;94.90;;;;;;5059205;28;20024;-72
2021/10/05 02:26:30;;;;;;;21.15;16.15;;;9.20;95.20;;;;;;5076609;28;20027;-73
2021/10/05 02:28:55;;;;;;;21.45;14.50;;;9.20;94.90;;;;;;5058525;28;20094;-71
2021/10/05 02:31:21;;;;;;;21.02;15.25;;;9.30;94.80;;;;;;5059574;28;20094;-71
2021/10/05 02:33:47;;;;;;;22.48;16.08;;;9.20;94.70;;;;;;5080301;28;20040;-71
2021/10/05 02:36:13;;;;;;;21.17;15.82;;;9.30;94.60;;;;;;5059370;28;20028;-71
2021/10/05 02:38:38;;;;;;;23.50;16.80;;;9.30;94.50;;;;;;5078368;28;20044;-71
2021/10/05 02:41:04;;;;;;;22.52;15.85;;;9.30;94.40;;;;;;5087061;28;20402;-72
2021/10/05 02:43:30;;;;;;;20.35;14.98;;;9.30;94.50;;;;;;5077853;28;20031;-72
2021/10/05 02:45:56;;;;;;;21.45;15.70;;;9.30;94.30;;;;;;5081282;28;20455;-72
2021/10/05 02:48:21;;;;;;;21.55;15.45;;;9.30;94.20;;;;;;5076221;28;20033;-73
2021/10/05 02:50:47;;;;;;;23.42;15.63;;;9.20;94.10;;;;;;5075356;28;20028;-73
2021/10/05 02:53:13;;;;;;;23.02;15.57;;;9.30;94.20;;;;;;5076020;28;20036;-73
2021/10/05 02:55:40;;;;;;;22.83;15.90;;;9.20;94.10;;;;;;5093449;28;20101;-74
2021/10/05 02:58:09;;;;;;;23.70;16.42;;;9.20;94.10;;;;;;5093412;28;20078;-71
2021/10/05 03:00:35;;;;;;;25.35;15.65;;;9.20;94.20;;;;;;5086325;28;20027;-71
2021/10/05 03:03:01;;;;;;;22.02;16.20;;;9.20;94.30;;;;;;5064195;28;20024;-66
2021/10/05 03:05:26;;;;;;;23.10;15.80;;;9.20;94.40;;;;;;5076349;28;20086;-83
2021/10/05 03:07:52;;;;;;;25.25;15.85;;;9.20;94.40;;;;;;5083820;28;20059;-86
2021/10/05 03:10:18;;;;;;;24.50;16.52;;;9.20;94.40;;;;;;5075935;28;20447;-84
2021/10/05 03:12:43;;;;;;;24.83;16.67;;;9.20;94.30;;;;;;5048293;28;20035;-85
2021/10/05 03:15:09;;;;;;;25.80;16.50;;;9.10;94.40;;;;;;5058558;28;20035;-85
2021/10/05 03:17:35;;;;;;;24.45;16.70;;;9.10;94.50;;;;;;5083301;28;20035;-85
2021/10/05 03:20:01;;;;;;;25.08;16.35;;;9.10;94.70;;;;;;5096073;28;20035;-84
2021/10/05 03:22:26;;;;;;;23.42;17.05;;;9.10;94.80;;;;;;5067426;28;20029;-84
2021/10/05 03:24:52;;;;;;;25.75;17.73;;;9.10;94.90;;;;;;5058123;28;20020;-85
2021/10/05 03:27:18;;;;;;;25.67;17.40;;;9.10;95.10;;;;;;5057831;28;20054;-86
2021/10/05 03:29:43;;;;;;;25.15;17.70;;;9.10;95.20;;;;;;5062933;28;20047;-85
2021/10/05 03:32:09;;;;;;;24.98;17.33;;;9.10;95.40;;;;;;5078598;28;20083;-85
2021/10/05 03:34:35;;;;;;;23.83;16.38;;;9.10;95.40;;;;;;5067823;28;20119;-85
2021/10/05 03:37:01;;;;;;;24.58;17.00;;;9.10;95.50;;;;;;5079233;28;20021;-85
2021/10/05 03:39:27;;;;;;;23.52;17.55;;;9.10;95.60;;;;;;5057467;28;20082;-84
2021/10/05 03:41:52;;;;;;;26.45;16.70;;;9.10;95.50;;;;;;5075805;28;20356;-85
2021/10/05 03:44:18;;;;;;;26.02;17.73;;;9.10;95.60;;;;;;5057633;28;20524;-84
2021/10/05 03:46:44;;;;;;;23.50;17.80;;;9.10;95.90;;;;;;5066778;28;20093;-85
2021/10/05 03:49:10;;;;;;;25.55;16.88;;;9.10;95.70;;;;;;5063644;28;20061;-85
2021/10/05 03:51:35;;;;;;;25.63;17.58;;;9.10;95.70;;;;;;5057479;28;20039;-86
2021/10/05 03:54:01;;;;;;;23.40;17.10;;;9.10;95.80;;;;;;5057314;28;20078;-84
2021/10/05 03:56:27;;;;;;;26.17;16.75;;;9.10;95.90;;;;;;5057233;28;20039;-85
2021/10/05 03:58:53;;;;;;;24.95;16.67;;;9.20;95.90;;;;;;5057282;28;20512;-85
2021/10/05 04:01:18;;;;;;;28.23;16.95;;;9.20;95.80;;;;;;5065306;28;20022;-84
2021/10/05 04:03:44;;;;;;;25.67;17.35;;;9.20;95.70;;;;;;5038525;28;20459;-83
2021/10/05 04:06:10;;;;;;;26.10;17.52;;;9.20;95.50;;;;;;5055749;28;20025;-85
2021/10/05 04:08:36;;;;;;;23.90;17.20;;;9.30;95.60;;;;;;5068579;28;20032;-83
2021/10/05 04:11:05;;;;;;;23.05;17.33;;;9.30;96.00;;;;;;5094478;28;20381;-83
2021/10/05 04:13:31;;;;;;;22.98;16.33;;;9.40;95.90;;;;;;5045497;28;20060;-84
2021/10/05 04:15:57;;;;;;;25.95;16.20;;;9.40;95.90;;;;;;5039165;28;20047;-83
2021/10/05 04:18:23;;;;;;;24.40;16.33;;;9.50;95.60;;;;;;5053034;28;20490;-79
2021/10/05 04:20:49;;;;;;;22.30;15.27;;;9.50;95.30;;;;;;5056314;28;20028;-79
2021/10/05 04:23:14;;;;;;;27.67;17.73;;;9.60;95.00;;;;;;5074024;28;20024;-80
2021/10/05 04:25:40;;;;;;;22.65;16.70;;;9.60;94.80;;;;;;5074285;28;20073;-81
2021/10/05 04:28:06;;;;;;;25.70;16.88;;;9.70;94.60;;;;;;5055521;28;20436;-77
2021/10/05 04:30:32;;;;;;;23.13;15.88;;;9.70;94.40;;;;;;5073696;28;20121;-78
2021/10/05 04:32:58;;;;;;;25.08;15.32;;;9.70;94.40;;;;;;5054968;28;20029;-76
2021/10/05 04:35:24;;;;;;;24.35;16.88;;;9.70;94.30;;;;;;5038180;28;20098;-82
2021/10/05 04:37:50;;;;;;;24.23;16.55;;;9.80;94.10;;;;;;5070909;28;20058;-80
2021/10/05 04:40:16;;;;;;;22.88;16.27;;;9.80;93.90;;;;;;5064425;28;20432;-79
2021/10/05 04:42:41;;;;;;;25.23;17.30;;;9.80;93.80;;;;;;5076127;28;20417;-81
2021/10/05 04:45:08;;;;;;;23.58;16.67;;;9.80;93.80;;;;;;5075249;28;20028;-76
2021/10/05 04:47:35;;;;;;;25.30;16.85;;;9.90;93.60;;;;;;5056521;28;20025;-66
2021/10/05 04:50:03;;;;;;;23.25;16.10;;;9.90;93.30;;;;;;5061175;28;20025;-82
2021/10/05 04:52:29;;;;;;;22.17;15.80;;;9.90;93.20;;;;;;5047199;28;20025;-84
2021/10/05 04:54:54;;;;;;;22.98;15.18;;;9.90;92.90;;;;;;5055236;28;20033;-80
2021/10/05 04:57:20;;;;;;;23.13;15.88;;;9.90;92.80;;;;;;5068455;28;20100;-81
2021/10/05 04:59:46;;;;;;;22.90;15.60;;;10.00;92.70;;;;;;5073707;28;20032;-81
2021/10/05 05:02:12;;;;;;;24.83;16.27;;;10.00;92.20;;;;;;5070958;28;20036;-80
2021/10/05 05:04:37;;;;;;;23.38;15.60;;;10.00;92.10;;;;;;5054090;28;20471;-83
2021/10/05 05:07:03;;;;;;;23.15;16.33;;;10.00;91.90;;;;;;5044707;28;20093;-77
2021/10/05 05:09:29;;;;;;;19.77;14.68;;;10.00;91.80;;;;;;5066485;28;20074;-78
2021/10/05 05:11:55;;;;;;;22.73;16.75;;;10.00;91.60;;;;;;5055371;28;20534;-76
2021/10/05 05:14:21;;;;;;;25.15;15.40;;;10.00;91.50;;;;;;5051486;28;20460;-77
2021/10/05 05:16:47;;;;;;;27.50;16.08;;;10.00;91.40;;;;;;5060005;28;20027;-77
2021/10/05 05:19:14;;;;;;;23.83;15.75;;;9.90;91.70;;;;;;5054189;28;20033;-78
2021/10/05 05:21:40;;;;;;;23.67;15.77;;;10.00;91.80;;;;;;5035679;28;20117;-77
2021/10/05 05:24:06;;;;;;;22.85;16.00;;;10.00;92.00;;;;;;5035371;28;20124;-77
2021/10/05 05:26:32;;;;;;;23.50;14.93;;;10.10;92.00;;;;;;5035925;28;20040;-76
2021/10/05 05:28:58;;;;;;;26.73;16.00;;;10.20;92.10;;;;;;5035502;28;20087;-77
2021/10/05 05:31:23;;;;;;;30.27;15.10;;;10.30;92.00;;;;;;5061295;28;20024;-77
2021/10/05 05:33:49;;;;;;;25.52;15.70;;;10.40;91.70;;;;;;5035295;28;20052;-77
2021/10/05 05:36:15;;;;;;;28.00;15.48;;;10.60;91.40;;;;;;5035067;28;20086;-77
2021/10/05 05:38:41;;;;;;;23.63;15.68;;;10.80;91.10;;;;;;5039414;28;20033;-77
2021/10/05 05:41:07;;;;;;;21.55;14.93;;;11.00;90.50;;;;;;5064706;28;20028;-77
2021/10/05 05:43:33;;;;;;;22.45;14.05;;;11.20;90.10;;;;;;5053117;28;20111;-76
2021/10/05 05:45:59;;;;;;;26.27;14.50;;;11.40;89.00;;;;;;5053292;28;20391;-77
2021/10/05 05:48:25;;;;;;;25.20;14.85;;;11.60;88.10;;;;;;5072663;28;20038;-77
2021/10/05 05:50:50;;;;;;;23.95;15.07;;;11.80;87.20;;;;;;5064436;28;20028;-77
2021/10/05 05:53:17;;;;;;;27.08;18.42;;;11.90;86.20;;;;;;5057390;28;20506;-77
2021/10/05 05:55:44;;;;;;;26.42;16.27;;;12.20;85.20;;;;;;5035187;28;20035;-77
2021/10/05 05:58:15;;;;;;;22.48;14.27;;;12.40;84.20;;;;;;5053075;28;20029;-76
2021/10/05 06:00:42;;;;;;;26.85;15.07;;;12.60;83.20;;;;;;5035368;28;20039;-77
2021/10/05 06:03:08;;;;;;;23.67;14.10;;;12.80;81.90;;;;;;5048909;28;20489;-76
2021/10/05 06:05:34;;;;;;;27.73;15.38;;;13.00;81.20;;;;;;5054424;28;20037;-77
2021/10/05 06:08:02;;;;;;;33.45;19.60;;;13.10;79.70;;;;;;5052712;28;20120;-77
2021/10/05 06:10:27;;;;;;;39.85;24.92;;;13.10;79.60;;;;;;5059965;28;20033;-77
2021/10/05 06:12:53;;;;;;;30.27;18.48;;;13.20;79.20;;;;;;5036393;28;20071;-76
2021/10/05 06:15:20;;;;;;;28.02;19.65;;;13.40;79.40;;;;;;5035376;28;20025;-77
2021/10/05 06:17:47;;;;;;;21.45;13.43;;;13.90;78.70;;;;;;5034618;28;20490;-78
2021/10/05 06:20:15;;;;;;;19.08;12.85;;;14.20;76.70;;;;;;5052341;28;20041;-77
2021/10/05 06:22:42;;;;;;;22.30;15.43;;;14.40;75.70;;;;;;5051655;28;20550;-78
2021/10/05 06:25:12;;;;;;;20.40;14.45;;;14.60;74.70;;;;;;5058434;28;20107;-77
2021/10/05 06:27:38;;;;;;;19.92;12.88;;;14.80;74.10;;;;;;5068374;28;20086;-77
2021/10/05 06:30:06;;;;;;;20.55;12.85;;;15.10;73.10;;;;;;5056542;28;20040;-77
2021/10/05 06:32:31;;;;;;;21.73;14.98;;;15.50;72.60;;;;;;5056107;28;20079;-75
2021/10/05 06:34:57;;;;;;;18.65;11.98;;;16.00;71.70;;;;;;5056344;28;20057;-77
2021/10/05 06:37:23;;;;;;;18.23;11.35;;;16.40;69.70;;;;;;5038081;28;20029;-78
2021/10/05 06:39:48;;;;;;;20.13;11.90;;;16.80;68.20;;;;;;5038265;28;20043;-76
2021/10/05 06:42:14;;;;;;;17.40;11.02;;;16.90;67.10;;;;;;5049585;28;20386;-75
2021/10/05 06:44:40;;;;;;;19.13;11.63;;;17.10;66.30;;;;;;5075459;28;20035;-75
2021/10/05 06:47:06;;;;;;;18.58;11.18;;;17.20;65.80;;;;;;5056966;28;20462;-76
2021/10/05 06:49:32;;;;;;;17.73;11.40;;;17.30;65.20;;;;;;5052245;28;20115;-76
2021/10/05 06:52:00;;;;;;;16.73;11.27;;;17.60;65.40;;;;;;5055883;28;20100;-77
2021/10/05 06:54:27;;;;;;;19.67;14.85;;;17.90;64.20;;;;;;5056015;28;20021;-77
2021/10/05 06:56:53;;;;;;;20.60;12.40;;;18.10;63.80;;;;;;5053452;28;20028;-76
2021/10/05 06:59:18;;;;;;;17.35;12.10;;;18.40;62.70;;;;;;5046171;28;20094;-77
2021/10/05 07:01:44;;;;;;;16.65;10.82;;;18.50;61.90;;;;;;5055582;28;20036;-77
2021/10/05 07:04:13;;;;;;;22.63;11.45;;;18.60;61.40;;;;;;5054576;28;20463;-76
2021/10/05 07:06:39;;;;;;;18.63;11.40;;;18.80;61.60;;;;;;5060205;28;20406;-77
2021/10/05 07:09:05;;;;;;;16.88;11.48;;;19.00;60.30;;;;;;5058795;28;20036;-78
2021/10/05 07:11:32;;;;;;;19.63;12.20;;;19.00;60.00;;;;;;5055976;28;20029;-77
2021/10/05 07:13:58;;;;;;;25.52;11.55;;;19.00;59.90;;;;;;5044251;28;20031;-76
2021/10/05 07:16:24;;;;;;;17.70;12.65;;;18.80;59.90;;;;;;5064667;28;20418;-76
2021/10/05 07:18:50;;;;;;;25.27;14.88;;;18.80;60.40;;;;;;5055369;28;20048;-76
2021/10/05 07:21:16;;;;;;;22.75;14.55;;;18.90;60.00;;;;;;5063427;28;20363;-77
2021/10/05 07:23:43;;;;;;;17.25;12.90;;;18.70;59.60;;;;;;5067571;28;20024;-76
2021/10/05 07:26:09;;;;;;;18.48;11.23;;;18.70;60.30;;;;;;5059740;28;20028;-76
2021/10/05 07:28:34;;;;;;;17.25;11.52;;;18.80;60.60;;;;;;5065430;28;20364;-77
2021/10/05 07:31:00;;;;;;;20.17;11.15;;;19.20;60.30;;;;;;5069097;28;20029;-76
2021/10/05 07:33:27;;;;;;;14.45;10.32;;;19.50;59.10;;;;;;5037306;28;20032;-76
2021/10/05 07:35:53;;;;;;;22.05;11.68;;;19.70;58.40;;;;;;5036812;28;20025;-76
2021/10/05 07:38:19;;;;;;;23.83;14.10;;;19.90;57.90;;;;;;5062704;28;20033;-76
2021/10/05 07:40:44;;;;;;;24.42;14.73;;;20.10;57.80;;;;;;5055092;28;20036;-76
2021/10/05 07:43:10;;;;;;;27.67;17.70;;;20.40;57.70;;;;;;5062876;28;20032;-77
2021/10/05 07:45:37;;;;;;;26.25;13.63;;;20.70;56.90;;;;;;5055188;28;20395;-76
2021/10/05 07:48:04;;;;;;;15.27;10.85;;;21.10;56.40;;;;;;5059123;28;20455;-76
2021/10/05 07:50:32;;;;;;;24.35;11.70;;;21.40;55.00;;;;;;5058138;28;20387;-76
2021/10/05 07:52:59;;;;;;;20.05;15.63;;;21.50;54.70;;;;;;5048752;28;20429;-76
2021/10/05 07:55:25;;;;;;;20.75;14.73;;;21.70;54.10;;;;;;5047877;28;20489;-76
2021/10/05 07:57:51;;;;;;;19.40;15.32;;;21.60;53.50;;;;;;5053449;28;20028;-76
2021/10/05 08:00:17;;;;;;;17.23;10.88;;;21.70;54.10;;;;;;5068329;28;20103;-76
2021/10/05 08:02:44;;;;;;;15.43;10.85;;;21.80;53.60;;;;;;5056689;28;20033;-76
2021/10/05 08:05:13;;;;;;;17.33;10.73;;;22.00;53.20;;;;;;5036614;28;20438;-76
2021/10/05 08:07:39;;;;;;;17.30;10.45;;;21.90;52.50;;;;;;5054191;28;20053;-78
2021/10/05 08:10:05;;;;;;;15.75;10.88;;;21.70;52.80;;;;;;5036578;28;20036;-76
2021/10/05 08:12:31;;;;;;;16.40;10.77;;;21.60;52.90;;;;;;5060861;28;20120;-76
2021/10/05 08:14:57;;;;;;;18.42;10.38;;;21.70;53.20;;;;;;5039890;28;20040;-76
2021/10/05 08:17:23;;;;;;;15.80;10.15;;;21.80;53.00;;;;;;5060213;28;20029;-77
2021/10/05 08:19:49;;;;;;;14.55;10.82;;;22.10;52.40;;;;;;5062010;28;20044;-76
2021/10/05 08:22:17;;;;;;;15.90;10.68;;;22.20;52.10;;;;;;5048406;28;20034;-76
2021/10/05 08:24:43;;;;;;;17.10;10.32;;;22.20;51.80;;;;;;5039841;28;20029;-76
2021/10/05 08:27:09;;;;;;;14.93;10.55;;;22.20;51.70;;;;;;5044111;28;20020;-76
2021/10/05 08:29:40;;;;;;;16.35;11.02;;;22.20;51.00;;;;;;5042406;28;20110;-76
2021/10/05 08:32:07;;;;;;;18.60;11.10;;;22.10;51.20;;;;;;5055563;28;20044;-76
2021/10/05 08:34:34;;;;;;;21.17;11.27;;;22.10;51.00;;;;;;5035954;28;20033;-76
2021/10/05 08:37:00;;;;;;;15.15;11.07;;;22.00;50.90;;;;;;5053720;28;20040;-76
2021/10/05 08:39:26;;;;;;;16.52;11.52;;;21.90;51.30;;;;;;5054146;28;20033;-76
2021/10/05 08:41:51;;;;;;;15.43;10.25;;;21.90;51.20;;;;;;5044190;28;20029;-76
2021/10/05 08:44:17;;;;;;;16.55;11.60;;;21.90;51.10;;;;;;5064437;28;20040;-76
2021/10/05 08:46:44;;;;;;;15.30;11.35;;;21.80;51.30;;;;;;5047360;28;20493;-76
2021/10/05 08:49:10;;;;;;;16.50;11.30;;;21.80;51.20;;;;;;5045890;28;20527;-77
2021/10/05 08:51:37;;;;;;;18.50;10.93;;;21.90;51.50;;;;;;5060597;28;20032;-76
2021/10/05 08:54:04;;;;;;;16.52;11.23;;;22.00;50.80;;;;;;5036139;28;20033;-78
2021/10/05 08:56:30;;;;;;;16.63;11.45;;;21.90;50.80;;;;;;5035890;28;20498;-76
2021/10/05 08:58:55;;;;;;;18.20;10.85;;;21.80;50.80;;;;;;5053868;28;20037;-77
2021/10/05 09:01:21;;;;;;;15.77;11.63;;;21.80;51.30;;;;;;5043871;28;20063;-77
2021/10/05 09:03:52;;;;;;;18.00;12.93;;;22.00;51.10;;;;;;5041200;28;20024;-77
2021/10/05 09:06:20;;;;;;;21.20;13.32;;;22.10;50.40;;;;;;5064443;28;20031;-77
2021/10/05 09:08:47;;;;;;;20.23;11.65;;;22.10;50.00;;;;;;5059528;28;20037;-77
2021/10/05 09:11:14;;;;;;;21.45;13.38;;;22.00;49.70;;;;;;5061166;28;20367;-77
2021/10/05 09:13:43;;;;;;;18.90;13.40;;;22.00;49.50;;;;;;5035796;28;20025;-77
2021/10/05 09:16:22;;;;;;;22.98;14.85;;;21.80;49.40;;;;;;5042997;28;20020;-77
2021/10/05 09:19:09;;;;;;;18.48;12.70;;;21.80;50.20;;;;;;5068110;28;20479;-77
2021/10/05 09:21:50;;;;;;;17.08;11.13;;;22.00;49.90;;;;;;5053296;28;20033;-77
2021/10/05 09:24:27;;;;;;;18.00;12.57;;;22.00;49.60;;;;;;5053705;28;20059;-77
2021/10/05 09:26:59;;;;;;;16.55;11.93;;;22.00;49.40;;;;;;5035880;28;20033;-77
2021/10/05 09:29:28;;;;;;;17.10;11.80;;;22.00;49.60;;;;;;5051628;28;20467;-77
2021/10/05 09:31:54;;;;;;;18.88;10.52;;;22.10;50.30;;;;;;5035538;28;20059;-77
2021/10/05 09:34:39;;;;;;;17.58;10.10;;;22.30;49.90;;;;;;5053691;28;20112;-77
2021/10/05 09:37:06;;;;;;;16.77;12.15;;;22.30;49.40;;;;;;5048222;28;20099;-77
2021/10/05 09:39:39;;;;;;;14.10;10.55;;;22.30;49.00;;;;;;5038753;28;20052;-77
2021/10/05 09:42:06;;;;;;;14.63;10.30;;;22.30;49.00;;;;;;5052889;28;20075;-77
2021/10/05 09:44:31;;;;;;;14.98;10.45;;;22.10;49.20;;;;;;5043324;28;20025;-77
2021/10/05 09:46:57;;;;;;;14.90;10.40;;;22.10;50.30;;;;;;5064450;28;20109;-77
2021/10/05 09:49:24;;;;;;;15.75;10.00;;;22.40;49.90;;;;;;5062370;28;20417;-76
2021/10/05 09:52:00;;;;;;;19.70;10.70;;;22.80;49.00;;;;;;5053167;28;20444;-76
2021/10/05 09:54:28;;;;;;;18.75;9.98;;;22.80;48.90;;;;;;5035051;28;20029;-77
2021/10/05 09:56:54;;;;;;;19.90;10.50;;;23.20;48.60;;;;;;5035105;28;20029;-76
2021/10/05 09:59:20;;;;;;;13.82;9.88;;;23.40;47.80;;;;;;5053496;28;20037;-76
2021/10/05 10:01:46;;;;;;;14.20;9.90;;;23.50;47.00;;;;;;5047312;28;20025;-76
2021/10/05 10:04:13;;;;;;;16.65;9.10;;;23.50;47.10;;;;;;5062926;28;20463;-77
2021/10/05 10:06:41;;;;;;;15.43;9.63;;;23.50;47.10;;;;;;5040607;28;20135;-76
2021/10/05 10:09:07;;;;;;;14.10;9.68;;;23.40;46.90;;;;;;5043388;28;20033;-76
2021/10/05 10:11:34;;;;;;;17.02;10.68;;;23.00;47.10;;;;;;5076454;28;20032;-75
2021/10/05 10:14:00;;;;;;;15.13;9.85;;;22.60;47.60;;;;;;5056771;28;20387;-77
2021/10/05 10:16:27;;;;;;;15.23;11.23;;;22.50;48.00;;;;;;5064999;28;20032;-77
2021/10/05 10:18:54;;;;;;;17.48;11.45;;;22.30;48.00;;;;;;5038393;28;20402;-77
2021/10/05 10:21:34;;;;;;;16.48;10.68;;;22.30;48.40;;;;;;5038737;28;20460;-76
2021/10/05 10:24:13;;;;;;;14.65;9.73;;;22.40;48.00;;;;;;5066933;28;20024;-76
2021/10/05 10:26:43;;;;;;;13.57;9.57;;;22.40;48.10;;;;;;5042038;28;20387;-77
2021/10/05 10:29:13;;;;;;;14.20;8.52;;;22.40;48.10;;;;;;5046839;28;20032;-79
2021/10/05 10:31:40;;;;;;;15.05;8.48;;;22.60;47.90;;;;;;5038272;28;20079;-78
2021/10/05 10:34:17;;;;;;;16.73;9.60;;;22.80;46.60;;;;;;5049299;28;20393;-77
2021/10/05 10:36:43;;;;;;;25.73;17.73;;;22.50;46.10;;;;;;5042018;28;20029;-78
2021/10/05 10:39:13;;;;;;;14.48;10.38;;;22.50;46.50;;;;;;5038232;28;20044;-77
2021/10/05 10:41:42;;;;;;;12.95;8.82;;;22.60;46.60;;;;;;5045386;28;20434;-77
2021/10/05 10:44:12;;;;;;;11.77;7.57;;;22.60;46.40;;;;;;5038911;28;20028;-77
2021/10/05 10:46:39;;;;;;;12.60;8.00;;;22.60;46.30;;;;;;5056084;28;20433;-77
2021/10/05 10:49:25;;;;;;;14.77;8.45;;;22.70;46.50;;;;;;5064081;28;20032;-76
2021/10/05 10:51:51;;;;;;;22.25;16.23;;;23.00;46.50;;;;;;5037857;28;20037;-77
2021/10/05 10:54:19;;;;;;;15.02;9.07;;;23.20;45.80;;;;;;5056328;28;20055;-77
2021/10/05 10:56:48;;;;;;;19.20;11.98;;;23.20;44.80;;;;;;5063784;28;20056;-77
2021/10/05 10:59:18;;;;;;;13.07;8.23;;;23.20;44.90;;;;;;5053953;28;20033;-78
2021/10/05 11:01:49;;;;;;;11.27;6.50;;;23.10;44.50;;;;;;5044419;28;20056;-77
2021/10/05 11:04:16;;;;;;;14.07;7.10;;;22.90;44.40;;;;;;5047362;28;20433;-78
2021/10/05 11:06:51;;;;;;;11.75;7.22;;;22.80;44.70;;;;;;5037673;28;20049;-77
2021/10/05 11:09:17;;;;;;;12.88;7.25;;;22.90;44.60;;;;;;5064222;28;20141;-78
2021/10/05 11:11:46;;;;;;;11.13;7.30;;;22.90;45.00;;;;;;5062609;28;20045;-78
2021/10/05 11:14:21;;;;;;;13.07;8.18;;;23.00;44.40;;;;;;5045730;28;20039;-79
2021/10/05 11:16:52;;;;;;;;;;;23.00;44.30;;;;;;5040873;28;20115;-78
2021/10/05 11:19:18;;;;;;;10.65;6.80;;;23.00;45.10;;;;;;5055921;28;19923;-78
2021/10/05 11:21:46;;;;;;;8.88;6.10;;;23.00;44.50;;;;;;5037570;28;20025;-76
2021/10/05 11:24:14;;;;;;;8.98;6.10;;;22.90;43.60;;;;;;5055227;28;20100;-76
2021/10/05 11:26:46;;;;;;;14.40;8.45;;;22.90;43.30;;;;;;5049812;28;20025;-76
2021/10/05 11:29:24;;;;;;;11.63;7.20;;;22.80;43.50;;;;;;5058816;28;20076;-76
2021/10/05 11:31:57;;;;;;;19.38;7.35;;;22.90;44.10;;;;;;5045658;28;20032;-78
2021/10/05 11:34:24;;;;;;;9.32;6.05;;;23.10;43.50;;;;;;5038157;28;20451;-77
2021/10/05 11:36:51;;;;;;;15.00;6.25;;;23.10;43.30;;;;;;5048516;28;20058;-77
2021/10/05 11:39:26;;;;;;;11.63;5.93;;;23.00;43.20;;;;;;5056210;28;20033;-76
2021/10/05 11:41:55;;;;;;;10.48;5.72;;;22.90;43.20;;;;;;5055583;28;20379;-78
2021/10/05 11:44:24;;;;;;;8.35;5.57;;;22.70;42.80;;;;;;5037132;28;20056;-77
2021/10/05 11:46:54;;;;;;;11.52;6.43;;;22.60;42.60;;;;;;5055032;28;20043;-77
2021/10/05 11:49:20;;;;;;;14.63;7.00;;;22.40;42.50;;;;;;5062306;28;20033;-76
2021/10/05 11:51:48;;;;;;;11.48;6.50;;;22.30;43.20;;;;;;5040009;28;20032;-77
2021/10/05 11:54:40;;;;;;;8.98;6.00;;;22.40;43.70;;;;;;5042437;28;20029;-77
2021/10/05 11:57:15;;;;;;;8.63;5.97;;;22.40;42.90;;;;;;5033830;28;20036;-77
2021/10/05 11:59:43;;;;;;;11.65;6.25;;;22.20;43.10;;;;;;5057892;28;20047;-77
2021/10/05 12:02:13;;;;;;;14.23;8.93;;;21.90;43.70;;;;;;5062786;28;20029;-76
2021/10/05 12:04:41;;;;;;;16.30;10.63;;;21.80;44.40;;;;;;5054527;28;20052;-77
2021/10/05 12:07:26;;;;;;;12.98;6.82;;;21.60;44.20;;;;;;5058279;28;20064;-78
2021/10/05 12:10:06;;;;;;;18.00;11.70;;;21.30;44.90;;;;;;5037875;28;20039;-77
2021/10/05 12:12:37;;;;;;;13.70;7.43;;;21.00;45.80;;;;;;5063039;28;20037;-77
2021/10/05 12:15:04;;;;;;;11.60;7.20;;;20.70;46.10;;;;;;5036831;28;20230;-77
2021/10/05 12:17:31;;;;;;;12.13;6.80;;;20.20;46.30;;;;;;5061980;28;20029;-77
2021/10/05 12:20:00;;;;;;;15.40;11.32;;;19.90;46.70;;;;;;5054597;28;20111;-77
2021/10/05 12:22:34;;;;;;;12.27;7.68;;;19.50;47.20;;;;;;5058914;28;20036;-76
2021/10/05 12:25:01;;;;;;;13.98;7.82;;;19.20;47.40;;;;;;5056039;28;20542;-77
2021/10/05 12:27:26;;;;;;;13.27;6.90;;;18.90;48.00;;;;;;5044420;28;20478;-76
2021/10/05 12:30:15;;;;;;;11.27;6.18;;;18.60;47.80;;;;;;5044657;28;20036;-76
2021/10/05 12:32:53;;;;;;;8.65;5.65;;;18.30;48.50;;;;;;5043484;28;20422;-77
2021/10/05 12:35:31;;;;;;;10.93;6.50;;;18.10;49.00;;;;;;5062490;28;20382;-77
2021/10/05 12:38:02;;;;;;;9.35;5.53;;;17.90;49.20;;;;;;5054031;28;20025;-77